Terminal Aerodrome Forecast
Issued by NWS

Home | Current Version | Previous Version | Text Only | Print | Product List | Glossary On
Versions: 1 2 3 4 5 6 7 8 9 10 11 12 13 14 15 16
072
FTUS46 KLOX 261141
TAFOXR
TAF
KOXR 261141Z 2612/2712 07006KT 6SM -RA BR SCT025 OVC040
     FM261600 10010KT P6SM VCSH SCT020 BKN050
     FM262100 14010KT P6SM BKN050 BKN100
     FM270300 VRB03KT P6SM BKN050=

USA.gov is the U.S. government's official web portal to all federal, state and local government web resources and services.